Time;durP1;ratioP1;P1;durP2;ratioP2;P2;SDS_P1;SDS_P2;PMS_P1;PMS_P2;Temp;Humidity;BMP_temperature;BMP_pressure;BME280_temperature;BME280_humidity;BME280_pressure;Samples;Min_cycle;Max_cycle;Signal;HPM_P1;HPM_P2
2021/07/18 00:00:19;;;;;;;21.52;13.75;;;18.90;43.30;;;;;;5102540;28;20085;-75
2021/07/18 00:03:07;;;;;;;21.10;13.27;;;18.80;42.70;;;;;;5103411;28;20050;-75
2021/07/18 00:05:56;;;;;;;19.10;12.65;;;18.80;42.30;;;;;;5099898;28;20051;-75
2021/07/18 00:08:44;;;;;;;17.48;12.88;;;18.80;41.80;;;;;;5099476;28;20047;-75
2021/07/18 00:11:33;;;;;;;17.33;12.45;;;18.80;41.60;;;;;;5100404;28;20069;-76
2021/07/18 00:14:21;;;;;;;21.02;12.55;;;18.80;41.60;;;;;;5102547;28;20097;-76
2021/07/18 00:17:11;;;;;;;22.77;13.10;;;18.80;41.20;;;;;;5104487;28;20180;-76
2021/07/18 00:20:00;;;;;;;15.98;11.10;;;18.70;41.00;;;;;;5091202;28;20127;-76
2021/07/18 00:22:48;;;;;;;17.13;11.90;;;18.70;41.20;;;;;;5103767;27;20047;-76
2021/07/18 00:25:37;;;;;;;17.75;11.98;;;18.70;40.10;;;;;;5100242;28;20101;-76
2021/07/18 00:28:26;;;;;;;20.70;12.95;;;18.70;40.40;;;;;;5091347;28;20501;-77
2021/07/18 00:31:18;;;;;;;17.58;12.23;;;18.60;40.30;;;;;;5104932;27;20040;-77
2021/07/18 00:34:07;;;;;;;16.13;11.18;;;18.60;39.70;;;;;;5106475;27;20044;-76
2021/07/18 00:36:56;;;;;;;19.88;11.07;;;18.60;39.00;;;;;;5085073;28;20050;-76
2021/07/18 00:39:44;;;;;;;18.77;11.52;;;18.60;39.50;;;;;;5103968;28;20130;-77
2021/07/18 00:42:33;;;;;;;19.75;12.63;;;18.40;40.40;;;;;;5100987;27;20188;-77
2021/07/18 00:45:21;;;;;;;15.20;11.57;;;18.40;41.00;;;;;;5102669;28;20058;-76
2021/07/18 00:48:10;;;;;;;17.25;11.63;;;18.30;40.70;;;;;;5107193;27;20079;-76
2021/07/18 00:51:00;;;;;;;17.05;10.60;;;18.30;40.30;;;;;;5106289;28;20039;-76
2021/07/18 00:53:54;;;;;;;16.55;10.80;;;18.30;38.30;;;;;;5104182;27;21160;-77
2021/07/18 00:56:42;;;;;;;13.15;10.38;;;18.30;38.30;;;;;;5102630;27;20048;-77
2021/07/18 00:59:31;;;;;;;15.95;9.35;;;18.30;37.90;;;;;;5103868;27;21252;-77
2021/07/18 01:02:20;;;;;;;13.95;10.55;;;18.30;35.80;;;;;;5086592;28;20043;-77
2021/07/18 01:05:10;;;;;;;16.20;10.57;;;18.30;35.80;;;;;;5082690;28;20059;-78
2021/07/18 01:08:00;;;;;;;13.23;9.50;;;18.30;36.50;;;;;;5106083;27;20616;-75
2021/07/18 01:10:49;;;;;;;16.42;9.85;;;18.30;34.30;;;;;;5106449;27;20051;-76
2021/07/18 01:13:37;;;;;;;13.77;9.27;;;18.20;34.40;;;;;;5101360;28;20055;-75
2021/07/18 01:16:26;;;;;;;11.93;8.60;;;18.20;33.80;;;;;;5072152;28;20349;-76
2021/07/18 01:19:20;;;;;;;16.65;9.40;;;18.20;31.70;;;;;;5105399;28;20499;-76
2021/07/18 01:22:09;;;;;;;16.88;8.60;;;18.10;30.20;;;;;;5102819;28;20119;-76
2021/07/18 01:24:58;;;;;;;12.15;8.20;;;18.10;28.30;;;;;;5099960;27;20162;-76
2021/07/18 01:27:48;;;;;;;16.95;8.40;;;18.10;27.60;;;;;;5100972;28;20521;-76
2021/07/18 01:30:37;;;;;;;12.70;8.23;;;18.10;28.00;;;;;;5100595;28;20123;-77
2021/07/18 01:33:25;;;;;;;12.98;8.13;;;18.00;28.00;;;;;;5102858;28;20409;-77
2021/07/18 01:36:14;;;;;;;16.77;8.57;;;18.00;27.50;;;;;;5099554;28;20138;-77
2021/07/18 01:39:06;;;;;;;11.07;7.90;;;17.90;27.80;;;;;;5104633;28;20128;-76
2021/07/18 01:41:57;;;;;;;15.05;8.30;;;17.80;27.50;;;;;;5103742;27;20119;-76
2021/07/18 01:44:47;;;;;;;11.63;7.88;;;17.90;27.50;;;;;;5100327;28;20048;-76
2021/07/18 01:47:35;;;;;;;10.00;7.85;;;17.80;28.00;;;;;;5088225;28;21063;-74
2021/07/18 01:50:24;;;;;;;14.15;8.07;;;17.80;27.40;;;;;;5089353;28;20062;-76
2021/07/18 01:53:13;;;;;;;12.07;7.43;;;17.80;27.40;;;;;;5102933;27;20039;-76
2021/07/18 01:56:02;;;;;;;10.48;8.05;;;17.70;27.60;;;;;;5100010;28;20645;-76
2021/07/18 01:58:52;;;;;;;12.15;7.25;;;17.60;28.30;;;;;;5087875;28;20047;-76
2021/07/18 02:01:41;;;;;;;10.90;7.43;;;17.70;27.30;;;;;;5103810;28;20101;-75
2021/07/18 02:04:29;;;;;;;9.75;7.03;;;17.60;26.70;;;;;;5101293;28;20040;-76
2021/07/18 02:07:17;;;;;;;9.70;7.05;;;17.60;26.70;;;;;;5104485;28;20074;-76
2021/07/18 02:10:08;;;;;;;10.15;6.78;;;17.50;26.40;;;;;;5105286;28;20540;-76
2021/07/18 02:12:57;;;;;;;12.20;6.40;;;17.50;25.00;;;;;;5102275;27;20426;-77
2021/07/18 02:15:46;;;;;;;7.90;6.30;;;17.50;24.90;;;;;;5099286;28;20046;-77
2021/07/18 02:18:34;;;;;;;9.93;6.82;;;17.40;25.00;;;;;;5104422;27;20048;-76
2021/07/18 02:21:23;;;;;;;11.82;6.10;;;17.40;24.80;;;;;;5105004;28;20047;-76
2021/07/18 02:24:11;;;;;;;8.18;6.38;;;17.40;23.60;;;;;;5088589;28;20534;-75
2021/07/18 02:27:00;;;;;;;10.38;6.10;;;17.30;23.60;;;;;;5099830;27;20051;-77
2021/07/18 02:29:49;;;;;;;8.68;5.43;;;17.20;24.10;;;;;;5100530;27;20131;-76
2021/07/18 02:32:38;;;;;;;8.00;5.68;;;17.10;24.80;;;;;;5102290;28;20734;-76
2021/07/18 02:35:26;;;;;;;11.52;6.15;;;17.10;25.70;;;;;;5097891;28;20062;-76
2021/07/18 02:38:15;;;;;;;9.80;5.97;;;17.00;26.00;;;;;;5103940;27;20047;-76
2021/07/18 02:41:03;;;;;;;8.93;6.05;;;16.90;26.90;;;;;;5102330;28;20486;-76
2021/07/18 02:43:52;;;;;;;11.80;6.40;;;16.80;26.80;;;;;;5096042;28;20170;-76
2021/07/18 02:46:42;;;;;;;8.95;6.32;;;16.80;27.90;;;;;;5099524;28;20059;-76
2021/07/18 02:49:30;;;;;;;7.63;5.80;;;16.80;28.30;;;;;;5099849;28;20120;-76
2021/07/18 02:52:19;;;;;;;9.60;6.40;;;16.80;29.10;;;;;;5100079;27;20052;-77
2021/07/18 02:55:08;;;;;;;10.70;6.47;;;16.70;30.00;;;;;;5101372;28;20172;-77
2021/07/18 02:57:57;;;;;;;10.82;6.30;;;16.80;28.80;;;;;;5100438;28;20108;-77
2021/07/18 03:00:45;;;;;;;9.45;6.68;;;16.70;28.70;;;;;;5102307;28;20111;-77
2021/07/18 03:03:36;;;;;;;9.02;6.40;;;16.70;29.00;;;;;;5084862;28;20058;-77
2021/07/18 03:06:24;;;;;;;9.07;5.82;;;16.70;28.80;;;;;;5100513;27;20044;-78
2021/07/18 03:09:12;;;;;;;9.82;6.00;;;16.70;28.70;;;;;;5100837;28;20136;-77
2021/07/18 03:12:01;;;;;;;9.75;5.93;;;16.70;28.60;;;;;;5099366;28;20093;-77
2021/07/18 03:14:51;;;;;;;9.02;6.25;;;16.60;30.00;;;;;;5100389;28;20096;-77
2021/07/18 03:17:40;;;;;;;10.50;6.28;;;16.60;28.30;;;;;;5100769;28;20173;-78
2021/07/18 03:20:30;;;;;;;15.13;5.68;;;16.60;29.60;;;;;;5101575;28;20040;-77
2021/07/18 03:23:18;;;;;;;7.43;5.72;;;16.60;28.50;;;;;;5088500;28;20520;-78
2021/07/18 03:26:06;;;;;;;13.40;5.78;;;16.60;26.60;;;;;;5098856;28;20557;-76
2021/07/18 03:28:55;;;;;;;9.80;5.90;;;16.60;26.90;;;;;;5087762;28;20095;-78
2021/07/18 03:31:43;;;;;;;7.43;4.97;;;16.50;27.10;;;;;;5102765;28;20044;-77
2021/07/18 03:34:32;;;;;;;10.02;5.57;;;16.50;26.50;;;;;;5099258;28;20207;-77
2021/07/18 03:37:22;;;;;;;7.72;5.35;;;16.50;26.50;;;;;;5100450;28;20128;-77
2021/07/18 03:40:12;;;;;;;9.10;5.55;;;16.40;26.50;;;;;;5098692;28;20447;-76
2021/07/18 03:43:01;;;;;;;9.07;5.53;;;16.40;27.40;;;;;;5097514;28;20517;-76
2021/07/18 03:45:49;;;;;;;7.80;5.03;;;16.30;26.40;;;;;;5095926;28;20607;-77
2021/07/18 03:48:38;;;;;;;11.80;4.88;;;16.40;24.50;;;;;;5089413;27;20063;-77
2021/07/18 03:51:26;;;;;;;8.18;4.80;;;16.40;23.60;;;;;;5085791;28;20486;-76
2021/07/18 03:54:16;;;;;;;9.10;5.00;;;16.50;22.80;;;;;;5104797;28;20054;-77
2021/07/18 03:57:05;;;;;;;7.22;4.93;;;16.60;20.90;;;;;;5103249;28;20059;-77
2021/07/18 03:59:53;;;;;;;7.07;4.85;;;16.80;20.80;;;;;;5093757;28;20134;-77
2021/07/18 04:02:41;;;;;;;11.90;5.25;;;17.00;19.50;;;;;;5089907;28;20122;-77
2021/07/18 04:05:32;;;;;;;10.05;4.40;;;17.30;17.10;;;;;;5100413;28;20048;-77
2021/07/18 04:08:20;;;;;;;9.50;5.05;;;17.20;16.30;;;;;;5092630;28;20920;-77
2021/07/18 04:11:11;;;;;;;8.23;4.28;;;17.50;13.70;;;;;;5088537;28;20143;-76
2021/07/18 04:13:59;;;;;;;9.27;4.65;;;17.80;11.20;;;;;;5104134;28;20269;-76
2021/07/18 04:16:47;;;;;;;7.90;4.22;;;18.10;9.60;;;;;;5105742;28;20120;-76
2021/07/18 04:19:36;;;;;;;7.40;3.85;;;18.20;6.60;;;;;;5102328;28;20567;-76
2021/07/18 04:22:24;;;;;;;5.47;3.83;;;18.60;5.10;;;;;;5105203;28;20051;-76
2021/07/18 04:25:13;;;;;;;7.90;3.72;;;18.60;2.40;;;;;;5099519;28;20066;-77
2021/07/18 04:28:03;;;;;;;4.90;3.67;;;19.00;1.00;;;;;;5104264;27;20123;-76
2021/07/18 04:30:51;;;;;;;4.45;3.20;;;19.00;1.70;;;;;;5102104;28;20051;-76
2021/07/18 04:33:43;;;;;;;9.18;3.83;;;19.60;1.00;;;;;;5101150;28;20044;-77
2021/07/18 04:36:31;;;;;;;4.40;3.03;;;19.20;1.00;;;;;;5088121;28;20521;-76
2021/07/18 04:39:20;;;;;;;4.55;3.40;;;19.30;1.00;;;;;;5104951;28;20062;-76
2021/07/18 04:42:08;;;;;;;6.80;3.50;;;19.70;1.00;;;;;;5101287;28;20055;-76
2021/07/18 04:44:58;;;;;;;6.18;3.53;;;20.20;1.00;;;;;;5101307;28;20046;-77
2021/07/18 04:47:51;;;;;;;8.10;3.30;;;19.70;1.00;;;;;;5102450;28;20055;-76
2021/07/18 04:50:40;;;;;;;5.30;3.35;;;20.80;1.00;;;;;;5103322;28;20086;-76
2021/07/18 04:53:28;;;;;;;5.35;3.55;;;20.70;1.00;;;;;;5103277;27;20137;-76
2021/07/18 04:56:17;;;;;;;6.60;3.28;;;21.30;1.00;;;;;;5102607;28;20047;-76
2021/07/18 04:59:06;;;;;;;5.47;3.05;;;20.40;1.00;;;;;;5106738;27;20126;-76
2021/07/18 05:01:56;;;;;;;5.40;3.47;;;20.50;1.00;;;;;;5090749;28;20538;-76
2021/07/18 05:04:46;;;;;;;4.43;2.95;;;20.90;1.00;;;;;;5097622;28;20047;-76
2021/07/18 05:07:45;;;;;;;7.72;3.67;;;20.60;1.00;;;;;;5105357;27;20082;-77
2021/07/18 05:10:33;;;;;;;12.15;3.70;;;21.00;1.00;;;;;;5086677;28;20126;-77
2021/07/18 05:13:21;;;;;;;7.55;3.53;;;21.90;1.00;;;;;;5105985;28;20173;-77
2021/07/18 05:16:10;;;;;;;6.85;2.90;;;21.10;1.00;;;;;;5100452;28;21582;-74
2021/07/18 05:19:00;;;;;;;9.65;3.45;;;21.50;1.00;;;;;;5101677;27;20054;-77
2021/07/18 05:21:48;;;;;;;5.68;3.72;;;21.60;1.00;;;;;;5102424;28;20072;-77
2021/07/18 05:24:36;;;;;;;3.50;2.65;;;22.20;1.00;;;;;;5103800;27;20414;-77
2021/07/18 05:27:25;;;;;;;5.35;2.95;;;21.80;1.00;;;;;;5105906;27;20094;-77
2021/07/18 05:30:15;;;;;;;3.25;2.45;;;20.20;1.00;;;;;;5102007;28;20047;-77
2021/07/18 05:33:04;;;;;;;4.15;2.72;;;19.80;1.00;;;;;;5104332;28;20044;-77
2021/07/18 05:35:55;;;;;;;5.22;2.47;;;19.50;1.00;;;;;;5100287;28;20036;-76
2021/07/18 05:38:43;;;;;;;5.47;2.25;;;19.70;1.00;;;;;;5102735;27;20164;-76
2021/07/18 05:41:32;;;;;;;3.70;2.25;;;19.40;1.00;;;;;;5106384;27;20055;-76
2021/07/18 05:44:20;;;;;;;4.95;2.10;;;19.60;1.00;;;;;;5101763;28;20604;-76
2021/07/18 05:47:09;;;;;;;3.63;2.30;;;20.50;1.00;;;;;;5091004;28;20052;-76
2021/07/18 05:49:58;;;;;;;7.80;2.40;;;21.40;1.00;;;;;;5104766;27;20047;-76
2021/07/18 05:52:47;;;;;;;5.68;2.30;;;22.00;1.00;;;;;;5088664;28;20044;-76
2021/07/18 05:55:36;;;;;;;3.15;2.28;;;21.90;1.00;;;;;;5074884;28;20488;-75
2021/07/18 05:58:24;;;;;;;3.13;2.47;;;21.30;1.00;;;;;;5104152;28;20501;-75
2021/07/18 06:01:14;;;;;;;5.10;2.15;;;21.50;1.00;;;;;;5105775;28;20059;-75
2021/07/18 06:04:03;;;;;;;5.47;2.10;;;21.10;1.00;;;;;;5099288;27;21427;-75
2021/07/18 06:06:51;;;;;;;5.10;2.15;;;20.80;1.00;;;;;;5085792;28;20047;-75
2021/07/18 06:09:41;;;;;;;3.20;2.13;;;20.00;1.00;;;;;;5103795;28;20116;-75
2021/07/18 06:12:30;;;;;;;3.10;1.98;;;20.20;1.00;;;;;;5103955;27;20396;-76
2021/07/18 06:15:18;;;;;;;5.55;2.20;;;20.70;1.00;;;;;;5097815;28;20092;-76
2021/07/18 06:18:07;;;;;;;3.28;2.15;;;21.10;1.00;;;;;;5100941;27;20052;-75
2021/07/18 06:20:55;;;;;;;4.57;1.80;;;20.60;1.00;;;;;;5102358;28;20524;-75
2021/07/18 06:23:44;;;;;;;4.15;2.40;;;21.10;1.00;;;;;;5098814;28;20040;-76
2021/07/18 06:26:34;;;;;;;6.20;1.80;;;20.60;1.00;;;;;;5099763;28;20126;-75
2021/07/18 06:29:22;;;;;;;3.65;1.85;;;21.20;1.00;;;;;;5103937;27;20067;-76
2021/07/18 06:32:10;;;;;;;4.47;2.40;;;20.60;1.00;;;;;;5101817;27;20486;-73
2021/07/18 06:34:59;;;;;;;3.78;1.85;;;21.10;1.00;;;;;;5099508;27;20048;-75
2021/07/18 06:37:47;;;;;;;5.07;1.75;;;21.30;1.00;;;;;;5101608;27;20142;-76
2021/07/18 06:40:36;;;;;;;4.70;1.98;;;21.30;1.00;;;;;;5105855;27;20517;-75
2021/07/18 06:43:26;;;;;;;3.55;1.63;;;21.10;1.00;;;;;;5101206;28;20631;-75
2021/07/18 06:46:15;;;;;;;4.05;1.77;;;21.80;1.00;;;;;;5069360;28;20039;-74
2021/07/18 06:49:04;;;;;;;3.72;1.80;;;21.40;1.00;;;;;;5099231;27;20066;-73
2021/07/18 06:51:52;;;;;;;3.85;1.92;;;20.90;1.00;;;;;;5105536;27;20097;-75
2021/07/18 06:54:40;;;;;;;3.25;1.95;;;19.50;1.00;;;;;;5098072;28;20048;-74
2021/07/18 06:57:29;;;;;;;3.60;1.80;;;19.70;1.00;;;;;;5104208;28;20130;-74
2021/07/18 07:00:20;;;;;;;4.93;2.15;;;20.00;1.00;;;;;;5104377;27;20052;-75
2021/07/18 07:03:08;;;;;;;2.17;1.60;;;19.90;1.00;;;;;;5099842;27;20035;-74
2021/07/18 07:05:57;;;;;;;8.35;2.13;;;20.10;1.00;;;;;;5084876;28;20604;-74
2021/07/18 07:08:45;;;;;;;5.28;1.85;;;19.80;1.00;;;;;;5104199;28;20047;-75
2021/07/18 07:11:34;;;;;;;2.35;1.70;;;19.80;1.00;;;;;;5087567;28;20087;-76
2021/07/18 07:14:22;;;;;;;3.92;1.95;;;20.20;1.00;;;;;;5097133;28;20054;-74
2021/07/18 07:17:12;;;;;;;2.38;1.73;;;20.20;1.00;;;;;;5102911;27;20142;-75
2021/07/18 07:20:00;;;;;;;5.45;1.88;;;20.10;1.00;;;;;;5104456;28;20050;-75
2021/07/18 07:22:50;;;;;;;5.20;2.13;;;20.10;1.00;;;;;;5098671;28;20118;-75
2021/07/18 07:25:38;;;;;;;5.07;2.00;;;20.40;1.00;;;;;;5099413;28;20113;-75
2021/07/18 07:28:28;;;;;;;4.75;2.40;;;20.70;1.00;;;;;;5100513;28;20051;-75
2021/07/18 07:31:16;;;;;;;3.10;1.80;;;20.10;1.00;;;;;;5100473;28;20048;-74
2021/07/18 07:34:06;;;;;;;5.32;1.80;;;20.10;1.00;;;;;;5099293;28;20056;-75
2021/07/18 07:36:54;;;;;;;3.78;1.70;;;20.10;1.00;;;;;;5103342;28;20136;-74
2021/07/18 07:39:43;;;;;;;4.28;2.25;;;20.20;1.00;;;;;;5103108;28;20047;-75
2021/07/18 07:42:31;;;;;;;5.40;1.88;;;20.50;1.00;;;;;;5101042;28;20502;-75
2021/07/18 07:45:20;;;;;;;7.53;2.10;;;20.50;1.00;;;;;;5098352;28;20406;-75
2021/07/18 07:48:08;;;;;;;5.28;2.10;;;20.80;1.00;;;;;;5102216;28;20040;-74
2021/07/18 07:50:58;;;;;;;3.65;2.10;;;20.00;1.00;;;;;;5101728;28;20051;-75
2021/07/18 07:53:46;;;;;;;4.95;2.50;;;20.30;1.00;;;;;;5097651;28;20062;-74
2021/07/18 07:56:35;;;;;;;5.90;2.58;;;20.80;1.00;;;;;;5098887;28;20043;-75
2021/07/18 07:59:23;;;;;;;6.13;2.22;;;20.10;1.00;;;;;;5101961;28;20082;-74
2021/07/18 08:02:11;;;;;;;7.85;2.72;;;20.30;1.00;;;;;;5100259;28;20055;-75
2021/07/18 08:05:00;;;;;;;4.85;2.42;;;20.50;1.00;;;;;;5097573;28;20570;-76
2021/07/18 08:07:50;;;;;;;5.07;2.15;;;20.50;1.00;;;;;;5102777;28;20054;-75
2021/07/18 08:10:39;;;;;;;3.78;2.10;;;21.10;1.00;;;;;;5104821;28;20130;-76
2021/07/18 08:13:28;;;;;;;4.40;2.22;;;20.60;1.00;;;;;;5098997;28;20067;-75
2021/07/18 08:16:16;;;;;;;5.20;2.40;;;20.80;1.00;;;;;;5097977;28;20052;-75
2021/07/18 08:19:05;;;;;;;3.88;2.47;;;21.10;1.00;;;;;;5103808;28;20052;-76
2021/07/18 08:21:53;;;;;;;4.80;2.30;;;21.20;1.00;;;;;;5102697;28;20490;-76
2021/07/18 08:24:43;;;;;;;6.53;2.33;;;21.20;1.00;;;;;;5099288;28;20555;-75
2021/07/18 08:27:31;;;;;;;5.47;2.63;;;21.30;1.00;;;;;;5100915;28;20166;-76
2021/07/18 08:30:21;;;;;;;6.35;2.25;;;21.20;1.00;;;;;;5103480;28;20047;-75
2021/07/18 08:33:10;;;;;;;4.05;2.10;;;21.40;1.00;;;;;;5098932;27;20109;-74
2021/07/18 08:35:59;;;;;;;5.13;2.50;;;21.30;1.00;;;;;;5105112;27;20405;-75
2021/07/18 08:38:47;;;;;;;2.75;1.85;;;21.50;1.00;;;;;;5105725;28;20050;-75
2021/07/18 08:41:43;;;;;;;6.95;2.08;;;21.40;1.00;;;;;;5103603;28;20151;-76
2021/07/18 08:44:32;;;;;;;6.15;2.05;;;21.40;1.00;;;;;;5102302;28;20364;-75
2021/07/18 08:47:20;;;;;;;6.60;2.22;;;21.80;1.00;;;;;;5107857;27;20456;-76
2021/07/18 08:50:10;;;;;;;3.85;2.30;;;21.90;1.00;;;;;;5106676;28;20048;-75
2021/07/18 08:52:59;;;;;;;5.38;2.25;;;22.10;1.00;;;;;;5090723;28;20051;-75
2021/07/18 08:55:51;;;;;;;3.00;1.92;;;22.10;1.00;;;;;;5100146;28;20069;-75
2021/07/18 08:58:41;;;;;;;5.35;2.25;;;22.00;1.00;;;;;;5103039;27;20047;-75
2021/07/18 09:01:29;;;;;;;4.10;2.25;;;21.70;1.00;;;;;;5107915;28;20122;-75
2021/07/18 09:04:18;;;;;;;3.35;2.20;;;21.70;1.00;;;;;;5101710;28;20124;-75
2021/07/18 09:07:08;;;;;;;3.58;2.20;;;21.90;1.00;;;;;;5100317;28;20052;-74
2021/07/18 09:10:06;;;;;;;3.80;2.15;;;22.10;1.00;;;;;;5107384;27;20043;-75
2021/07/18 09:13:06;;;;;;;3.97;2.03;;;21.90;1.00;;;;;;5105642;28;20093;-75
2021/07/18 09:15:56;;;;;;;5.35;2.25;;;22.10;1.00;;;;;;5081415;28;20048;-75
2021/07/18 09:18:45;;;;;;;4.45;2.50;;;21.80;1.00;;;;;;5087733;28;20399;-75
2021/07/18 09:21:33;;;;;;;2.47;2.03;;;21.90;1.00;;;;;;5069085;28;20043;-75
2021/07/18 09:24:35;;;;;;;3.45;2.33;;;21.80;1.00;;;;;;5068847;28;20052;-76
2021/07/18 09:27:25;;;;;;;6.88;2.30;;;22.50;1.00;;;;;;5086622;28;20077;-75
2021/07/18 09:30:16;;;;;;;6.88;2.40;;;22.20;1.00;;;;;;5085523;28;20407;-77
2021/07/18 09:33:07;;;;;;;6.00;2.40;;;22.70;1.00;;;;;;5084969;28;20470;-76
2021/07/18 09:36:12;;;;;;;3.72;2.03;;;23.00;1.00;;;;;;5081794;28;20036;-77
2021/07/18 09:39:06;;;;;;;4.15;2.28;;;22.90;1.00;;;;;;5082793;28;20544;-76
2021/07/18 09:41:57;;;;;;;4.72;2.45;;;22.60;1.00;;;;;;5081255;28;20048;-75
2021/07/18 09:44:47;;;;;;;3.10;2.35;;;23.40;1.00;;;;;;5081794;28;20071;-76
2021/07/18 09:47:58;;;;;;;7.45;2.60;;;22.60;1.00;;;;;;5087842;28;20044;-73
2021/07/18 09:50:48;;;;;;;3.90;2.30;;;22.80;1.00;;;;;;5068726;28;20080;-76
2021/07/18 09:53:37;;;;;;;4.22;2.17;;;22.90;1.00;;;;;;5082988;28;20064;-74
2021/07/18 09:56:26;;;;;;;7.18;2.60;;;23.00;1.00;;;;;;5080290;28;20067;-74
2021/07/18 09:59:14;;;;;;;5.03;2.42;;;23.10;1.00;;;;;;5083440;28;20410;-76
2021/07/18 10:02:04;;;;;;;5.25;2.50;;;23.10;1.00;;;;;;5082494;28;20052;-76
2021/07/18 10:04:54;;;;;;;5.57;2.40;;;23.50;1.00;;;;;;5078777;28;20063;-76
2021/07/18 10:07:44;;;;;;;5.45;2.30;;;23.70;1.00;;;;;;5083135;28;20040;-76
2021/07/18 10:10:33;;;;;;;3.05;2.20;;;23.50;1.00;;;;;;5066381;28;20091;-74
2021/07/18 10:13:23;;;;;;;5.53;2.28;;;23.70;1.00;;;;;;5081793;28;20062;-76
2021/07/18 10:16:13;;;;;;;5.38;2.50;;;23.50;1.00;;;;;;5064149;28;20063;-75
2021/07/18 10:19:01;;;;;;;3.15;1.80;;;23.30;1.00;;;;;;5086615;28;20059;-75
2021/07/18 10:21:50;;;;;;;3.45;1.90;;;23.70;1.00;;;;;;5081874;28;20094;-76
2021/07/18 10:24:42;;;;;;;5.68;2.35;;;23.90;1.00;;;;;;5059520;28;20656;-75
2021/07/18 10:27:30;;;;;;;4.40;1.98;;;24.10;1.00;;;;;;5081826;28;20043;-76
2021/07/18 10:30:25;;;;;;;6.75;3.00;;;23.70;1.00;;;;;;5086915;28;20048;-75
2021/07/18 10:33:17;;;;;;;4.03;2.25;;;23.70;1.00;;;;;;5079902;28;20059;-76
2021/07/18 10:36:06;;;;;;;4.05;2.30;;;23.60;1.00;;;;;;5078290;28;20048;-74
2021/07/18 10:38:54;;;;;;;10.75;2.20;;;23.50;1.00;;;;;;5080900;28;20423;-76
2021/07/18 10:41:45;;;;;;;4.35;2.47;;;24.10;1.00;;;;;;5084939;28;20044;-75
2021/07/18 10:44:39;;;;;;;5.00;2.30;;;24.40;1.00;;;;;;5079231;28;20114;-77
2021/07/18 10:48:04;;;;;;;2.47;1.88;;;24.50;1.00;;;;;;5067624;28;20074;-77
2021/07/18 10:50:59;;;;;;;5.43;2.15;;;23.80;1.00;;;;;;5081656;28;20444;-74
2021/07/18 10:53:50;;;;;;;6.25;2.42;;;23.70;1.00;;;;;;5077881;28;20052;-75
2021/07/18 10:56:45;;;;;;;4.35;2.35;;;23.70;1.00;;;;;;5079793;28;20044;-75
2021/07/18 10:59:35;;;;;;;4.00;2.47;;;23.90;1.00;;;;;;5069227;28;20477;-73
2021/07/18 11:02:33;;;;;;;3.03;2.00;;;24.20;1.00;;;;;;5081833;28;20084;-75
2021/07/18 11:05:39;;;;;;;4.25;2.50;;;24.20;1.00;;;;;;5078077;28;20048;-77
2021/07/18 11:08:27;;;;;;;4.65;2.60;;;24.00;1.00;;;;;;5078838;28;20127;-74
2021/07/18 11:11:38;;;;;;;6.50;2.88;;;23.80;1.00;;;;;;5080768;28;20060;-74
2021/07/18 11:14:36;;;;;;;4.20;2.28;;;24.60;1.00;;;;;;5081910;28;20036;-75
2021/07/18 11:17:26;;;;;;;6.15;2.15;;;24.90;1.00;;;;;;5082476;28;20048;-71
2021/07/18 11:20:14;;;;;;;3.78;2.83;;;24.30;1.00;;;;;;5080763;28;20060;-76
2021/07/18 11:23:05;;;;;;;7.15;2.33;;;24.50;1.00;;;;;;5081813;28;20086;-74
2021/07/18 11:25:59;;;;;;;6.43;2.83;;;24.60;1.00;;;;;;5081262;28;20522;-76
2021/07/18 11:29:06;;;;;;;14.80;3.00;;;24.70;1.00;;;;;;5081882;28;20036;-76
2021/07/18 11:31:55;;;;;;;4.78;3.60;;;25.00;1.00;;;;;;5080630;28;20429;-75
2021/07/18 11:34:45;;;;;;;4.53;3.35;;;25.30;1.00;;;;;;5076963;28;20126;-76
2021/07/18 11:37:39;;;;;;;8.77;3.65;;;25.10;1.00;;;;;;5081014;28;20044;-79
2021/07/18 11:40:37;;;;;;;6.63;3.60;;;25.00;1.00;;;;;;5082143;28;20071;-77
2021/07/18 11:43:25;;;;;;;5.65;3.40;;;25.10;1.00;;;;;;5082754;28;20814;-77
2021/07/18 11:46:14;;;;;;;5.60;3.33;;;25.20;1.00;;;;;;5064717;28;20066;-78
2021/07/18 11:49:06;;;;;;;3.95;2.80;;;25.30;1.00;;;;;;5068453;28;20048;-78
2021/07/18 11:51:55;;;;;;;5.07;3.55;;;25.20;1.00;;;;;;5080272;28;20056;-76
2021/07/18 11:54:44;;;;;;;6.25;3.10;;;24.90;1.00;;;;;;5077199;28;20697;-77
2021/07/18 11:57:34;;;;;;;4.65;3.65;;;25.20;1.00;;;;;;5082378;28;20147;-78
2021/07/18 12:00:23;;;;;;;6.47;4.90;;;25.30;1.00;;;;;;5081489;28;20089;-75
2021/07/18 12:03:12;;;;;;;6.25;4.18;;;25.10;1.00;;;;;;5080746;28;21146;-75
2021/07/18 12:06:02;;;;;;;9.95;4.95;;;25.30;1.00;;;;;;5076546;28;20059;-75
2021/07/18 12:08:51;;;;;;;12.23;5.47;;;25.60;1.00;;;;;;5071308;28;20040;-75
2021/07/18 12:11:39;;;;;;;9.40;5.60;;;25.60;1.00;;;;;;5085913;28;20052;-76
2021/07/18 12:14:32;;;;;;;7.47;5.15;;;25.80;1.00;;;;;;5081197;28;20066;-75
2021/07/18 12:17:22;;;;;;;9.15;5.38;;;25.80;1.00;;;;;;5085219;28;20491;-73
2021/07/18 12:20:20;;;;;;;6.72;4.80;;;25.90;1.00;;;;;;5085560;28;20572;-78
2021/07/18 12:23:14;;;;;;;9.27;4.97;;;25.80;1.00;;;;;;5070885;28;20413;-77
2021/07/18 12:26:02;;;;;;;7.90;5.07;;;26.00;1.00;;;;;;5083960;28;20124;-77
2021/07/18 12:28:50;;;;;;;8.13;4.50;;;26.30;1.00;;;;;;5085532;28;20052;-77
2021/07/18 12:31:40;;;;;;;9.75;5.60;;;26.00;1.00;;;;;;5085233;28;20047;-76
2021/07/18 12:34:30;;;;;;;12.48;6.90;;;26.00;1.00;;;;;;5082400;28;20088;-77
2021/07/18 12:37:20;;;;;;;8.75;6.60;;;26.00;1.00;;;;;;5085190;28;20125;-78
2021/07/18 12:40:12;;;;;;;9.02;7.10;;;26.00;1.00;;;;;;5086504;28;20495;-77
2021/07/18 12:43:01;;;;;;;10.32;7.55;;;26.00;1.00;;;;;;5082284;28;20047;-77
2021/07/18 12:45:49;;;;;;;12.65;7.95;;;26.40;1.00;;;;;;5082002;28;20071;-78
2021/07/18 12:48:38;;;;;;;8.30;6.40;;;26.30;1.00;;;;;;5082175;28;20198;-77
2021/07/18 12:51:29;;;;;;;13.50;7.78;;;26.20;1.00;;;;;;5072197;28;20119;-77
2021/07/18 12:54:28;;;;;;;9.07;7.20;;;26.50;1.00;;;;;;5082924;28;20206;-78
2021/07/18 12:57:18;;;;;;;9.65;6.68;;;26.50;1.00;;;;;;5068298;28;20127;-78
2021/07/18 13:00:09;;;;;;;15.85;7.15;;;26.70;1.00;;;;;;5083282;28;20048;-77
2021/07/18 13:03:12;;;;;;;12.52;7.82;;;26.30;1.00;;;;;;5083959;28;20044;-75
2021/07/18 13:06:07;;;;;;;14.20;8.93;;;26.30;1.00;;;;;;5068924;28;20040;-75
2021/07/18 13:08:58;;;;;;;16.45;9.60;;;26.30;1.00;;;;;;5074512;28;20403;-74
2021/07/18 13:11:51;;;;;;;12.90;8.32;;;26.40;1.00;;;;;;5082821;28;20550;-74
2021/07/18 13:14:40;;;;;;;13.13;8.20;;;26.50;1.00;;;;;;5078387;28;20085;-78
2021/07/18 13:17:29;;;;;;;13.70;9.38;;;26.40;1.00;;;;;;5070291;28;20254;-80
2021/07/18 13:20:19;;;;;;;14.18;9.40;;;26.40;1.00;;;;;;5083989;28;20201;-82
2021/07/18 13:23:10;;;;;;;11.15;8.55;;;26.40;1.00;;;;;;5084926;28;20170;-78
2021/07/18 13:25:58;;;;;;;12.77;8.88;;;26.60;1.00;;;;;;5079656;28;20411;-79
2021/07/18 13:28:47;;;;;;;13.07;9.13;;;26.70;1.00;;;;;;5083901;28;20040;-81
2021/07/18 13:31:37;;;;;;;12.70;9.40;;;26.50;1.00;;;;;;5082571;28;20062;-78
2021/07/18 13:34:25;;;;;;;12.80;9.07;;;26.70;1.00;;;;;;5079589;28;20584;-81
2021/07/18 13:37:14;;;;;;;13.65;9.68;;;27.00;1.00;;;;;;5082321;28;20126;-78
2021/07/18 13:40:04;;;;;;;13.57;9.40;;;26.70;1.00;;;;;;5083727;28;20048;-78
2021/07/18 13:43:08;;;;;;;12.63;9.07;;;26.90;1.00;;;;;;5078601;28;20442;-77
2021/07/18 13:45:59;;;;;;;13.50;9.30;;;26.80;1.00;;;;;;5080782;28;20525;-79
2021/07/18 13:48:50;;;;;;;14.93;10.35;;;26.90;1.00;;;;;;5081210;28;20058;-80
2021/07/18 13:51:38;;;;;;;17.95;9.77;;;27.20;1.00;;;;;;5079805;28;20055;-80
2021/07/18 13:54:27;;;;;;;19.35;9.80;;;27.00;1.00;;;;;;5080538;28;20060;-79
2021/07/18 13:57:15;;;;;;;14.15;9.63;;;27.00;1.00;;;;;;5078789;28;20131;-77
2021/07/18 14:00:06;;;;;;;13.02;9.77;;;27.10;1.00;;;;;;5080313;28;20093;-79
2021/07/18 14:02:54;;;;;;;13.88;9.30;;;26.80;1.00;;;;;;5082627;28;20055;-78
2021/07/18 14:05:44;;;;;;;11.20;8.30;;;26.80;1.00;;;;;;5076258;28;20090;-75
2021/07/18 14:08:33;;;;;;;11.52;8.32;;;26.80;1.00;;;;;;5081458;28;20050;-76
2021/07/18 14:11:21;;;;;;;11.70;9.50;;;27.20;1.00;;;;;;5082415;28;20614;-80
2021/07/18 14:14:10;;;;;;;13.85;9.30;;;27.30;1.00;;;;;;5080482;28;20052;-79
2021/07/18 14:16:59;;;;;;;11.68;9.05;;;26.80;1.00;;;;;;5076783;28;20044;-78
2021/07/18 14:19:47;;;;;;;14.95;8.93;;;26.80;1.00;;;;;;5078114;28;20568;-79
2021/07/18 14:22:38;;;;;;;13.13;9.73;;;27.30;1.00;;;;;;5079210;28;20150;-79
2021/07/18 14:25:27;;;;;;;12.55;9.80;;;27.50;1.00;;;;;;5078013;28;20055;-78
2021/07/18 14:28:16;;;;;;;13.85;9.38;;;27.50;1.00;;;;;;5079223;28;20056;-79
2021/07/18 14:31:04;;;;;;;13.95;9.85;;;27.20;1.00;;;;;;5079669;28;20048;-79
2021/07/18 14:33:53;;;;;;;12.38;9.50;;;27.00;1.00;;;;;;5079924;28;20055;-79
2021/07/18 14:36:41;;;;;;;15.10;9.25;;;26.90;1.00;;;;;;5076943;28;20051;-75
2021/07/18 14:39:31;;;;;;;11.20;8.73;;;27.10;1.00;;;;;;5078808;28;20051;-76
2021/07/18 14:42:20;;;;;;;12.05;8.18;;;27.40;1.00;;;;;;5085626;28;20186;-76
2021/07/18 14:45:11;;;;;;;11.02;8.95;;;27.00;1.00;;;;;;5070211;28;20054;-78
2021/07/18 14:48:00;;;;;;;12.40;8.85;;;27.60;1.00;;;;;;5077327;28;20051;-79